sensor_id;sensor_type;location;lat;lon;timestamp;pressure;altitude;pressure_sealevel;temperature;humidity
73681;BME280;61979;53.536;8.082;2022-08-19T00:00:16;101504.84;;;19.47;78.38
73681;BME280;61979;53.536;8.082;2022-08-19T00:01:17;101506.34;;;19.53;78.12
73681;BME280;61979;53.536;8.082;2022-08-19T00:02:17;101510.00;;;19.47;78.91
73681;BME280;61979;53.536;8.082;2022-08-19T00:03:18;101511.88;;;19.44;78.96
73681;BME280;61979;53.536;8.082;2022-08-19T00:04:24;101509.06;;;19.50;79.01
73681;BME280;61979;53.536;8.082;2022-08-19T00:05:24;101512.56;;;19.49;77.97
73681;BME280;61979;53.536;8.082;2022-08-19T00:06:27;101507.47;;;19.46;78.59
73681;BME280;61979;53.536;8.082;2022-08-19T00:07:27;101500.28;;;19.54;78.34
73681;BME280;61979;53.536;8.082;2022-08-19T00:08:28;101500.41;;;19.51;77.68
73681;BME280;61979;53.536;8.082;2022-08-19T00:09:28;101498.59;;;19.53;77.89
73681;BME280;61979;53.536;8.082;2022-08-19T00:10:29;101501.13;;;19.54;78.09
73681;BME280;61979;53.536;8.082;2022-08-19T00:11:29;101489.91;;;19.54;77.67
73681;BME280;61979;53.536;8.082;2022-08-19T00:12:30;101488.25;;;19.53;77.08
73681;BME280;61979;53.536;8.082;2022-08-19T00:13:30;101490.88;;;19.51;78.03
73681;BME280;61979;53.536;8.082;2022-08-19T00:14:31;101488.47;;;19.47;77.98
73681;BME280;61979;53.536;8.082;2022-08-19T00:15:31;101483.28;;;19.47;78.22
73681;BME280;61979;53.536;8.082;2022-08-19T00:16:32;101484.03;;;19.50;78.18
73681;BME280;61979;53.536;8.082;2022-08-19T00:17:32;101481.53;;;19.49;78.41
73681;BME280;61979;53.536;8.082;2022-08-19T00:18:33;101468.59;;;19.49;78.27
73681;BME280;61979;53.536;8.082;2022-08-19T00:19:35;101466.00;;;19.49;78.41
73681;BME280;61979;53.536;8.082;2022-08-19T00:20:36;101471.16;;;19.49;77.92
73681;BME280;61979;53.536;8.082;2022-08-19T00:21:40;101469.50;;;19.48;78.40
73681;BME280;61979;53.536;8.082;2022-08-19T00:22:41;101469.66;;;19.43;78.40
73681;BME280;61979;53.536;8.082;2022-08-19T00:23:42;101468.81;;;19.43;77.98
73681;BME280;61979;53.536;8.082;2022-08-19T00:24:46;101467.97;;;19.42;79.03
73681;BME280;61979;53.536;8.082;2022-08-19T00:25:47;101471.59;;;19.38;78.05
73681;BME280;61979;53.536;8.082;2022-08-19T00:26:47;101466.59;;;19.34;78.94
73681;BME280;61979;53.536;8.082;2022-08-19T00:27:48;101471.53;;;19.40;78.92
73681;BME280;61979;53.536;8.082;2022-08-19T00:28:48;101476.75;;;19.38;78.58
73681;BME280;61979;53.536;8.082;2022-08-19T00:29:49;101475.03;;;19.39;78.45
73681;BME280;61979;53.536;8.082;2022-08-19T00:30:49;101474.03;;;19.41;78.39
73681;BME280;61979;53.536;8.082;2022-08-19T00:31:52;101482.81;;;19.37;78.00
73681;BME280;61979;53.536;8.082;2022-08-19T00:32:57;101479.50;;;19.34;77.42
73681;BME280;61979;53.536;8.082;2022-08-19T00:33:57;101483.47;;;19.42;78.41
73681;BME280;61979;53.536;8.082;2022-08-19T00:34:58;101475.78;;;19.41;78.39
73681;BME280;61979;53.536;8.082;2022-08-19T00:36:03;101478.59;;;19.35;78.20
73681;BME280;61979;53.536;8.082;2022-08-19T00:37:06;101473.56;;;19.32;79.09
73681;BME280;61979;53.536;8.082;2022-08-19T00:38:06;101476.69;;;19.40;78.50
73681;BME280;61979;53.536;8.082;2022-08-19T00:39:07;101473.09;;;19.44;78.36
73681;BME280;61979;53.536;8.082;2022-08-19T00:40:09;101474.91;;;19.42;78.66
73681;BME280;61979;53.536;8.082;2022-08-19T00:41:14;101473.13;;;19.42;77.76
73681;BME280;61979;53.536;8.082;2022-08-19T00:42:14;101482.44;;;19.48;78.12
73681;BME280;61979;53.536;8.082;2022-08-19T00:43:20;101473.84;;;19.46;78.09
73681;BME280;61979;53.536;8.082;2022-08-19T00:44:28;101483.28;;;19.47;77.70
73681;BME280;61979;53.536;8.082;2022-08-19T00:45:29;101480.66;;;19.48;78.18
73681;BME280;61979;53.536;8.082;2022-08-19T00:46:38;101469.38;;;19.51;77.78
73681;BME280;61979;53.536;8.082;2022-08-19T00:47:39;101464.56;;;19.42;77.50
73681;BME280;61979;53.536;8.082;2022-08-19T00:48:39;101459.16;;;19.48;77.73
73681;BME280;61979;53.536;8.082;2022-08-19T00:49:41;101455.84;;;19.44;78.10
73681;BME280;61979;53.536;8.082;2022-08-19T00:50:47;101455.75;;;19.46;78.00
73681;BME280;61979;53.536;8.082;2022-08-19T00:51:51;101452.16;;;19.50;76.43
73681;BME280;61979;53.536;8.082;2022-08-19T00:52:53;101455.66;;;19.49;76.86
73681;BME280;61979;53.536;8.082;2022-08-19T00:53:55;101451.56;;;19.43;77.42
73681;BME280;61979;53.536;8.082;2022-08-19T00:54:58;101446.28;;;19.46;78.28
73681;BME280;61979;53.536;8.082;2022-08-19T00:56:01;101451.25;;;19.51;77.69
73681;BME280;61979;53.536;8.082;2022-08-19T00:57:06;101455.53;;;19.52;78.18
73681;BME280;61979;53.536;8.082;2022-08-19T00:58:10;101448.66;;;19.51;78.34
73681;BME280;61979;53.536;8.082;2022-08-19T00:59:13;101457.44;;;19.47;77.03
73681;BME280;61979;53.536;8.082;2022-08-19T01:00:17;101456.63;;;19.46;78.12
73681;BME280;61979;53.536;8.082;2022-08-19T01:01:18;101447.94;;;19.47;76.62
73681;BME280;61979;53.536;8.082;2022-08-19T01:02:19;101455.75;;;19.46;77.60
73681;BME280;61979;53.536;8.082;2022-08-19T01:03:20;101452.16;;;19.50;77.83
73681;BME280;61979;53.536;8.082;2022-08-19T01:04:21;101453.13;;;19.47;77.32
73681;BME280;61979;53.536;8.082;2022-08-19T01:05:27;101449.81;;;19.44;78.13
73681;BME280;61979;53.536;8.082;2022-08-19T01:06:28;101446.50;;;19.40;77.43
73681;BME280;61979;53.536;8.082;2022-08-19T01:07:33;101451.84;;;19.36;77.49
73681;BME280;61979;53.536;8.082;2022-08-19T01:08:34;101451.03;;;19.35;78.13
73681;BME280;61979;53.536;8.082;2022-08-19T01:09:35;101462.97;;;19.38;77.23
73681;BME280;61979;53.536;8.082;2022-08-19T01:10:39;101460.50;;;19.35;77.22
73681;BME280;61979;53.536;8.082;2022-08-19T01:11:43;101457.69;;;19.41;77.16
73681;BME280;61979;53.536;8.082;2022-08-19T01:12:45;101459.25;;;19.45;76.91
73681;BME280;61979;53.536;8.082;2022-08-19T01:13:46;101459.25;;;19.45;77.24
73681;BME280;61979;53.536;8.082;2022-08-19T01:14:47;101456.97;;;19.37;78.12
73681;BME280;61979;53.536;8.082;2022-08-19T01:15:55;101451.63;;;19.42;77.79
73681;BME280;61979;53.536;8.082;2022-08-19T01:16:57;101450.75;;;19.41;77.37
73681;BME280;61979;53.536;8.082;2022-08-19T01:18:05;101449.16;;;19.39;76.46
73681;BME280;61979;53.536;8.082;2022-08-19T01:19:24;101451.66;;;19.40;77.47
73681;BME280;61979;53.536;8.082;2022-08-19T01:20:26;101455.88;;;19.43;76.56
73681;BME280;61979;53.536;8.082;2022-08-19T01:21:32;101455.75;;;19.46;77.54
73681;BME280;61979;53.536;8.082;2022-08-19T01:22:39;101454.22;;;19.42;76.60
73681;BME280;61979;53.536;8.082;2022-08-19T01:23:44;101442.06;;;19.44;77.12
73681;BME280;61979;53.536;8.082;2022-08-19T01:24:44;101451.50;;;19.45;76.68
73681;BME280;61979;53.536;8.082;2022-08-19T01:25:50;101451.50;;;19.45;76.56
73681;BME280;61979;53.536;8.082;2022-08-19T01:26:51;101444.69;;;19.42;76.39
73681;BME280;61979;53.536;8.082;2022-08-19T01:27:52;101450.13;;;19.36;76.55
73681;BME280;61979;53.536;8.082;2022-08-19T01:28:55;101454.56;;;19.33;77.13
73681;BME280;61979;53.536;8.082;2022-08-19T01:29:55;101451.84;;;19.36;77.00
73681;BME280;61979;53.536;8.082;2022-08-19T01:30:58;101452.63;;;19.38;76.47
73681;BME280;61979;53.536;8.082;2022-08-19T01:31:58;101455.13;;;19.41;76.92
73681;BME280;61979;53.536;8.082;2022-08-19T01:33:02;101449.94;;;19.41;77.24
73681;BME280;61979;53.536;8.082;2022-08-19T01:34:06;101460.38;;;19.38;76.62
73681;BME280;61979;53.536;8.082;2022-08-19T01:35:07;101450.13;;;19.36;76.73
73681;BME280;61979;53.536;8.082;2022-08-19T01:36:11;101455.38;;;19.33;77.23
73681;BME280;61979;53.536;8.082;2022-08-19T01:37:14;101459.00;;;19.29;77.19
73681;BME280;61979;53.536;8.082;2022-08-19T01:38:26;101461.53;;;19.31;77.68
73681;BME280;61979;53.536;8.082;2022-08-19T01:39:27;101462.41;;;19.30;77.15
73681;BME280;61979;53.536;8.082;2022-08-19T01:40:31;101458.06;;;19.32;77.32
73681;BME280;61979;53.536;8.082;2022-08-19T01:41:33;101457.94;;;19.35;76.52
73681;BME280;61979;53.536;8.082;2022-08-19T01:42:34;101457.97;;;19.33;76.03
73681;BME280;61979;53.536;8.082;2022-08-19T01:43:35;101458.06;;;19.32;76.29
73681;BME280;61979;53.536;8.082;2022-08-19T01:44:37;101449.16;;;19.39;76.52
73681;BME280;61979;53.536;8.082;2022-08-19T01:45:38;101451.81;;;19.37;75.90
73681;BME280;61979;53.536;8.082;2022-08-19T01:46:41;101452.53;;;19.41;76.10
73681;BME280;61979;53.536;8.082;2022-08-19T01:47:42;101452.63;;;19.38;76.77
73681;BME280;61979;53.536;8.082;2022-08-19T01:48:45;101452.88;;;19.32;77.02
73681;BME280;61979;53.536;8.082;2022-08-19T01:49:46;101452.03;;;19.31;77.81
73681;BME280;61979;53.536;8.082;2022-08-19T01:50:46;101447.59;;;19.35;77.08
73681;BME280;61979;53.536;8.082;2022-08-19T01:51:48;101440.72;;;19.34;77.37
73681;BME280;61979;53.536;8.082;2022-08-19T01:52:50;101439.81;;;19.35;77.02
73681;BME280;61979;53.536;8.082;2022-08-19T01:53:51;101445.13;;;19.32;76.72
73681;BME280;61979;53.536;8.082;2022-08-19T01:54:52;101443.38;;;19.32;76.35
73681;BME280;61979;53.536;8.082;2022-08-19T01:55:52;101437.25;;;19.35;76.06
73681;BME280;61979;53.536;8.082;2022-08-19T01:56:58;101442.53;;;19.32;76.21
73681;BME280;61979;53.536;8.082;2022-08-19T01:58:02;101434.88;;;19.29;76.21
73681;BME280;61979;53.536;8.082;2022-08-19T01:59:10;101449.50;;;19.30;77.15
73681;BME280;61979;53.536;8.082;2022-08-19T02:00:14;101439.06;;;19.33;76.28
73681;BME280;61979;53.536;8.082;2022-08-19T02:01:16;101442.41;;;19.35;76.33
73681;BME280;61979;53.536;8.082;2022-08-19T02:02:16;101441.47;;;19.37;76.16
73681;BME280;61979;53.536;8.082;2022-08-19T02:03:17;101444.94;;;19.36;76.49
73681;BME280;61979;53.536;8.082;2022-08-19T02:04:17;101439.88;;;19.33;76.48
73681;BME280;61979;53.536;8.082;2022-08-19T02:05:18;101435.69;;;19.31;76.41
73681;BME280;61979;53.536;8.082;2022-08-19T02:06:21;101440.19;;;19.26;77.03
73681;BME280;61979;53.536;8.082;2022-08-19T02:07:21;101433.28;;;19.26;76.93
73681;BME280;61979;53.536;8.082;2022-08-19T02:08:22;101445.22;;;19.29;76.52
73681;BME280;61979;53.536;8.082;2022-08-19T02:09:22;101434.88;;;19.29;76.77
73681;BME280;61979;53.536;8.082;2022-08-19T02:10:23;101442.91;;;19.23;77.77
73681;BME280;61979;53.536;8.082;2022-08-19T02:11:27;101447.94;;;19.26;76.92
73681;BME280;61979;53.536;8.082;2022-08-19T02:12:28;101444.44;;;19.27;77.31
73681;BME280;61979;53.536;8.082;2022-08-19T02:13:28;101448.84;;;19.25;77.45
73681;BME280;61979;53.536;8.082;2022-08-19T02:14:29;101451.44;;;19.25;77.57
73681;BME280;61979;53.536;8.082;2022-08-19T02:15:29;101452.25;;;19.25;77.08
73681;BME280;61979;53.536;8.082;2022-08-19T02:16:30;101453.97;;;19.26;77.18
73681;BME280;61979;53.536;8.082;2022-08-19T02:17:30;101445.41;;;19.24;77.23
73681;BME280;61979;53.536;8.082;2022-08-19T02:18:31;101448.84;;;19.25;77.29
73681;BME280;61979;53.536;8.082;2022-08-19T02:19:32;101446.22;;;19.26;77.21
73681;BME280;61979;53.536;8.082;2022-08-19T02:20:32;101443.09;;;19.17;77.27
73681;BME280;61979;53.536;8.082;2022-08-19T02:21:34;101442.16;;;19.19;77.42
73681;BME280;61979;53.536;8.082;2022-08-19T02:22:35;101451.75;;;19.16;77.78
73681;BME280;61979;53.536;8.082;2022-08-19T02:23:35;101445.28;;;19.04;78.21
73681;BME280;61979;53.536;8.082;2022-08-19T02:24:35;101434.13;;;18.81;77.88
73681;BME280;61979;53.536;8.082;2022-08-19T02:25:36;101437.16;;;18.92;77.32
73681;BME280;61979;53.536;8.082;2022-08-19T02:26:36;101435.13;;;19.00;77.80
73681;BME280;61979;53.536;8.082;2022-08-19T02:27:38;101437.53;;;19.04;77.76
73681;BME280;61979;53.536;8.082;2022-08-19T02:28:39;101436.63;;;19.05;77.56
73681;BME280;61979;53.536;8.082;2022-08-19T02:29:40;101428.28;;;18.99;78.42
73681;BME280;61979;53.536;8.082;2022-08-19T02:30:41;101433.28;;;19.03;77.68
73681;BME280;61979;53.536;8.082;2022-08-19T02:31:42;101426.25;;;19.07;77.67
73681;BME280;61979;53.536;8.082;2022-08-19T02:32:43;101433.44;;;18.99;77.83
73681;BME280;61979;53.536;8.082;2022-08-19T02:33:44;101434.91;;;18.83;78.02
73681;BME280;61979;53.536;8.082;2022-08-19T02:34:44;101433.78;;;18.90;77.52
73681;BME280;61979;53.536;8.082;2022-08-19T02:35:45;101431.75;;;18.98;77.34
73681;BME280;61979;53.536;8.082;2022-08-19T02:36:46;101434.19;;;19.02;77.03
73681;BME280;61979;53.536;8.082;2022-08-19T02:37:46;101433.44;;;18.99;77.61
73681;BME280;61979;53.536;8.082;2022-08-19T02:39:06;101429.81;;;19.03;78.05
73681;BME280;61979;53.536;8.082;2022-08-19T02:40:06;101432.50;;;19.01;78.35
73681;BME280;61979;53.536;8.082;2022-08-19T02:41:15;101434.22;;;19.01;77.26
73681;BME280;61979;53.536;8.082;2022-08-19T02:42:16;101434.22;;;19.01;77.60
73681;BME280;61979;53.536;8.082;2022-08-19T02:43:17;101441.16;;;19.00;77.81
73681;BME280;61979;53.536;8.082;2022-08-19T02:44:18;101436.94;;;18.98;78.09
73681;BME280;61979;53.536;8.082;2022-08-19T02:45:18;101441.16;;;19.00;77.46
73681;BME280;61979;53.536;8.082;2022-08-19T02:46:22;101436.03;;;18.99;77.54
73681;BME280;61979;53.536;8.082;2022-08-19T02:47:23;101439.50;;;18.98;77.96
73681;BME280;61979;53.536;8.082;2022-08-19T02:48:25;101438.94;;;18.90;78.15
73681;BME280;61979;53.536;8.082;2022-08-19T02:49:25;101431.13;;;18.91;77.67
73681;BME280;61979;53.536;8.082;2022-08-19T02:50:26;101432.09;;;18.89;77.98
73681;BME280;61979;53.536;8.082;2022-08-19T02:51:36;101435.47;;;18.91;77.35
73681;BME280;61979;53.536;8.082;2022-08-19T02:52:36;101429.56;;;18.87;77.62
73681;BME280;61979;53.536;8.082;2022-08-19T02:53:37;101428.84;;;18.84;77.68
73681;BME280;61979;53.536;8.082;2022-08-19T02:54:37;101431.47;;;18.82;77.34
73681;BME280;61979;53.536;8.082;2022-08-19T02:55:46;101435.81;;;18.82;78.03
73681;BME280;61979;53.536;8.082;2022-08-19T02:56:47;101429.75;;;18.83;77.50
73681;BME280;61979;53.536;8.082;2022-08-19T02:57:47;101429.06;;;18.78;77.94
73681;BME280;61979;53.536;8.082;2022-08-19T02:58:48;101426.19;;;18.62;77.81
73681;BME280;61979;53.536;8.082;2022-08-19T02:59:48;101424.47;;;18.63;77.04
73681;BME280;61979;53.536;8.082;2022-08-19T03:00:53;101424.47;;;18.63;77.55
73681;BME280;61979;53.536;8.082;2022-08-19T03:01:53;101424.56;;;18.60;77.13
73681;BME280;61979;53.536;8.082;2022-08-19T03:02:54;101422.88;;;18.59;76.86
73681;BME280;61979;53.536;8.082;2022-08-19T03:03:56;101421.31;;;18.55;76.97
73681;BME280;61979;53.536;8.082;2022-08-19T03:04:57;101416.94;;;18.57;76.97
73681;BME280;61979;53.536;8.082;2022-08-19T03:06:14;101414.34;;;18.57;76.57
73681;BME280;61979;53.536;8.082;2022-08-19T03:07:15;101417.22;;;18.49;76.55
73681;BME280;61979;53.536;8.082;2022-08-19T03:08:16;101421.56;;;18.47;76.55
73681;BME280;61979;53.536;8.082;2022-08-19T03:09:18;101427.22;;;18.34;76.73
73681;BME280;61979;53.536;8.082;2022-08-19T03:10:19;101428.81;;;18.38;75.85
73681;BME280;61979;53.536;8.082;2022-08-19T03:11:25;101430.56;;;18.36;76.21
73681;BME280;61979;53.536;8.082;2022-08-19T03:12:26;101424.78;;;18.29;76.87
73681;BME280;61979;53.536;8.082;2022-08-19T03:13:26;101417.75;;;18.34;76.06
73681;BME280;61979;53.536;8.082;2022-08-19T03:14:30;101419.38;;;18.37;75.42
73681;BME280;61979;53.536;8.082;2022-08-19T03:15:31;101415.09;;;18.36;76.00
73681;BME280;61979;53.536;8.082;2022-08-19T03:16:36;101418.69;;;18.32;76.03
73681;BME280;61979;53.536;8.082;2022-08-19T03:17:39;101414.13;;;18.14;76.78
73681;BME280;61979;53.536;8.082;2022-08-19T03:18:40;101411.59;;;17.88;77.99
73681;BME280;61979;53.536;8.082;2022-08-19T03:19:40;101408.25;;;17.84;78.19
73681;BME280;61979;53.536;8.082;2022-08-19T03:20:51;101403.06;;;17.86;77.88
73681;BME280;61979;53.536;8.082;2022-08-19T03:21:54;101407.91;;;17.95;77.98
73681;BME280;61979;53.536;8.082;2022-08-19T03:22:55;101405.19;;;17.99;78.11
73681;BME280;61979;53.536;8.082;2022-08-19T03:23:57;101411.94;;;18.02;77.28
73681;BME280;61979;53.536;8.082;2022-08-19T03:24:59;101408.38;;;18.06;77.00
73681;BME280;61979;53.536;8.082;2022-08-19T03:26:04;101409.28;;;18.05;76.63
73681;BME280;61979;53.536;8.082;2022-08-19T03:27:05;101410.97;;;18.06;76.99
73681;BME280;61979;53.536;8.082;2022-08-19T03:28:05;101410.28;;;18.01;76.78
73681;BME280;61979;53.536;8.082;2022-08-19T03:29:08;101409.38;;;18.02;76.67
73681;BME280;61979;53.536;8.082;2022-08-19T03:30:10;101413.69;;;18.01;75.83
73681;BME280;61979;53.536;8.082;2022-08-19T03:31:13;101409.38;;;18.02;76.68
73681;BME280;61979;53.536;8.082;2022-08-19T03:32:14;101415.50;;;17.99;76.60
73681;BME280;61979;53.536;8.082;2022-08-19T03:33:14;101412.19;;;17.96;77.06
73681;BME280;61979;53.536;8.082;2022-08-19T03:34:24;101403.59;;;17.95;76.29
73681;BME280;61979;53.536;8.082;2022-08-19T03:35:28;101406.22;;;17.94;76.76
73681;BME280;61979;53.536;8.082;2022-08-19T03:36:28;101410.72;;;17.87;77.20
73681;BME280;61979;53.536;8.082;2022-08-19T03:37:28;101405.66;;;17.86;77.31
73681;BME280;61979;53.536;8.082;2022-08-19T03:38:29;101406.63;;;17.82;77.60
73681;BME280;61979;53.536;8.082;2022-08-19T03:39:29;101403.16;;;17.83;77.51
73681;BME280;61979;53.536;8.082;2022-08-19T03:40:30;101403.16;;;17.83;77.17
73681;BME280;61979;53.536;8.082;2022-08-19T03:41:40;101405.06;;;17.78;77.21
73681;BME280;61979;53.536;8.082;2022-08-19T03:42:40;101404.94;;;17.81;77.29
73681;BME280;61979;53.536;8.082;2022-08-19T03:43:42;101403.25;;;17.80;77.34
73681;BME280;61979;53.536;8.082;2022-08-19T03:44:43;101404.31;;;17.74;77.10
73681;BME280;61979;53.536;8.082;2022-08-19T03:45:45;101419.09;;;17.68;77.90
73681;BME280;61979;53.536;8.082;2022-08-19T03:46:48;101416.59;;;17.66;77.46
73681;BME280;61979;53.536;8.082;2022-08-19T03:47:49;101419.09;;;17.68;77.08
73681;BME280;61979;53.536;8.082;2022-08-19T03:48:52;101414.16;;;17.62;77.79
73681;BME280;61979;53.536;8.082;2022-08-19T03:49:55;101427.97;;;17.61;77.33
73681;BME280;61979;53.536;8.082;2022-08-19T03:50:56;101420.22;;;17.61;77.18
73681;BME280;61979;53.536;8.082;2022-08-19T03:51:58;101422.88;;;17.58;77.28
73681;BME280;61979;53.536;8.082;2022-08-19T03:53:00;101417.84;;;17.55;77.58
73681;BME280;61979;53.536;8.082;2022-08-19T03:54:03;101417.94;;;17.52;77.91
73681;BME280;61979;53.536;8.082;2022-08-19T03:55:05;101416.34;;;17.48;78.14
73681;BME280;61979;53.536;8.082;2022-08-19T03:56:08;101415.53;;;17.46;77.98
73681;BME280;61979;53.536;8.082;2022-08-19T03:57:08;101418.00;;;17.49;77.94
73681;BME280;61979;53.536;8.082;2022-08-19T03:58:09;101418.88;;;17.49;77.47
73681;BME280;61979;53.536;8.082;2022-08-19T03:59:14;101419.69;;;17.50;77.30
73681;BME280;61979;53.536;8.082;2022-08-19T04:00:15;101419.66;;;17.51;77.50
73681;BME280;61979;53.536;8.082;2022-08-19T04:01:17;101421.50;;;17.48;77.23
73681;BME280;61979;53.536;8.082;2022-08-19T04:02:18;101417.34;;;17.44;77.57
73681;BME280;61979;53.536;8.082;2022-08-19T04:03:18;101412.44;;;17.35;78.02
73681;BME280;61979;53.536;8.082;2022-08-19T04:04:19;101415.19;;;17.29;79.17
73681;BME280;61979;53.536;8.082;2022-08-19T04:05:19;101413.84;;;17.16;79.61
73681;BME280;61979;53.536;8.082;2022-08-19T04:06:26;101410.50;;;17.14;80.18
73681;BME280;61979;53.536;8.082;2022-08-19T04:07:27;101411.28;;;17.16;80.20
73681;BME280;61979;53.536;8.082;2022-08-19T04:08:28;101409.56;;;17.16;79.58
73681;BME280;61979;53.536;8.082;2022-08-19T04:09:28;101411.22;;;17.19;79.96
73681;BME280;61979;53.536;8.082;2022-08-19T04:10:28;101419.00;;;17.16;80.14
73681;BME280;61979;53.536;8.082;2022-08-19T04:11:34;101425.19;;;17.10;80.72
73681;BME280;61979;53.536;8.082;2022-08-19T04:12:35;101429.41;;;17.13;80.17
73681;BME280;61979;53.536;8.082;2022-08-19T04:13:35;101423.41;;;17.12;80.29
73681;BME280;61979;53.536;8.082;2022-08-19T04:14:35;101423.75;;;17.02;81.05
73681;BME280;61979;53.536;8.082;2022-08-19T04:15:40;101424.50;;;17.05;80.86
73681;BME280;61979;53.536;8.082;2022-08-19T04:16:42;101433.13;;;17.04;81.09
73681;BME280;61979;53.536;8.082;2022-08-19T04:17:44;101430.31;;;17.12;80.36
73681;BME280;61979;53.536;8.082;2022-08-19T04:18:45;101431.22;;;17.11;79.79
73681;BME280;61979;53.536;8.082;2022-08-19T04:19:46;101432.88;;;17.12;79.74
73681;BME280;61979;53.536;8.082;2022-08-19T04:20:46;101432.88;;;17.12;79.34
73681;BME280;61979;53.536;8.082;2022-08-19T04:21:50;101422.75;;;17.06;79.43
73681;BME280;61979;53.536;8.082;2022-08-19T04:22:51;101422.75;;;17.06;79.57
73681;BME280;61979;53.536;8.082;2022-08-19T04:23:51;101418.53;;;17.03;79.53
73681;BME280;61979;53.536;8.082;2022-08-19T04:24:52;101411.66;;;17.04;79.14
73681;BME280;61979;53.536;8.082;2022-08-19T04:25:53;101416.81;;;17.04;79.00
73681;BME280;61979;53.536;8.082;2022-08-19T04:26:53;101412.44;;;17.06;78.86
73681;BME280;61979;53.536;8.082;2022-08-19T04:27:54;101414.66;;;16.90;80.57
73681;BME280;61979;53.536;8.082;2022-08-19T04:28:54;101417.88;;;16.97;79.96
73681;BME280;61979;53.536;8.082;2022-08-19T04:29:55;101421.19;;;17.02;79.56
73681;BME280;61979;53.536;8.082;2022-08-19T04:30:55;101428.34;;;16.91;80.44
73681;BME280;61979;53.536;8.082;2022-08-19T04:31:57;101423.97;;;16.94;79.59
73681;BME280;61979;53.536;8.082;2022-08-19T04:32:58;101424.72;;;16.98;79.54
73681;BME280;61979;53.536;8.082;2022-08-19T04:34:00;101419.56;;;16.98;79.43
73681;BME280;61979;53.536;8.082;2022-08-19T04:35:01;101422.97;;;17.00;80.05
73681;BME280;61979;53.536;8.082;2022-08-19T04:36:02;101419.50;;;17.01;79.60
73681;BME280;61979;53.536;8.082;2022-08-19T04:37:05;101418.50;;;17.05;78.50
73681;BME280;61979;53.536;8.082;2022-08-19T04:38:11;101417.72;;;17.03;78.70
73681;BME280;61979;53.536;8.082;2022-08-19T04:39:14;101412.66;;;17.00;79.08
73681;BME280;61979;53.536;8.082;2022-08-19T04:40:15;101422.13;;;16.98;79.79
73681;BME280;61979;53.536;8.082;2022-08-19T04:41:34;101415.34;;;16.95;79.23
73681;BME280;61979;53.536;8.082;2022-08-19T04:42:54;101421.38;;;16.94;79.73
73681;BME280;61979;53.536;8.082;2022-08-19T04:43:54;101421.44;;;16.93;79.63
73681;BME280;61979;53.536;8.082;2022-08-19T04:44:54;101424.91;;;16.92;79.62
73681;BME280;61979;53.536;8.082;2022-08-19T04:45:55;101417.88;;;16.97;79.79
73681;BME280;61979;53.536;8.082;2022-08-19T04:46:56;101423.06;;;16.95;79.96
73681;BME280;61979;53.536;8.082;2022-08-19T04:47:56;101425.72;;;16.94;79.17
73681;BME280;61979;53.536;8.082;2022-08-19T04:48:58;101423.25;;;16.89;79.67
73681;BME280;61979;53.536;8.082;2022-08-19T04:49:59;101424.91;;;16.92;79.89
73681;BME280;61979;53.536;8.082;2022-08-19T04:51:00;101422.59;;;16.83;80.69
73681;BME280;61979;53.536;8.082;2022-08-19T04:52:01;101423.44;;;16.83;81.31
73681;BME280;61979;53.536;8.082;2022-08-19T04:53:01;101420.09;;;16.80;80.76
73681;BME280;61979;53.536;8.082;2022-08-19T04:54:02;101426.66;;;16.61;82.36
73681;BME280;61979;53.536;8.082;2022-08-19T04:55:03;101418.69;;;16.70;81.54
73681;BME280;61979;53.536;8.082;2022-08-19T04:56:10;101421.78;;;16.81;80.66
73681;BME280;61979;53.536;8.082;2022-08-19T04:57:10;101415.72;;;16.83;81.12
73681;BME280;61979;53.536;8.082;2022-08-19T04:58:11;101419.84;;;16.89;80.30
73681;BME280;61979;53.536;8.082;2022-08-19T04:59:11;101423.31;;;16.88;80.55
73681;BME280;61979;53.536;8.082;2022-08-19T05:00:12;101426.28;;;16.74;80.51
73681;BME280;61979;53.536;8.082;2022-08-19T05:01:14;101421.78;;;16.81;80.51
73681;BME280;61979;53.536;8.082;2022-08-19T05:02:17;101423.47;;;16.82;80.69
73681;BME280;61979;53.536;8.082;2022-08-19T05:03:18;101431.81;;;16.90;80.37
73681;BME280;61979;53.536;8.082;2022-08-19T05:04:19;101435.28;;;16.89;80.15
73681;BME280;61979;53.536;8.082;2022-08-19T05:05:20;101433.50;;;16.91;80.20
73681;BME280;61979;53.536;8.082;2022-08-19T05:06:21;101437.94;;;16.87;80.00
73681;BME280;61979;53.536;8.082;2022-08-19T05:07:22;101447.63;;;16.78;80.82
73681;BME280;61979;53.536;8.082;2022-08-19T05:08:22;101445.09;;;16.76;80.93
73681;BME280;61979;53.536;8.082;2022-08-19T05:09:22;101445.69;;;16.86;81.22
73681;BME280;61979;53.536;8.082;2022-08-19T05:10:23;101437.50;;;16.72;81.24
73681;BME280;61979;53.536;8.082;2022-08-19T05:11:26;101440.69;;;16.80;81.44
73681;BME280;61979;53.536;8.082;2022-08-19T05:12:28;101437.28;;;16.79;80.92
73681;BME280;61979;53.536;8.082;2022-08-19T05:13:28;101442.13;;;16.90;80.01
73681;BME280;61979;53.536;8.082;2022-08-19T05:14:29;101445.41;;;16.95;80.91
73681;BME280;61979;53.536;8.082;2022-08-19T05:15:30;101442.69;;;17.01;80.13
73681;BME280;61979;53.536;8.082;2022-08-19T05:16:30;101446.84;;;17.05;80.62
73681;BME280;61979;53.536;8.082;2022-08-19T05:17:31;101451.72;;;17.14;80.47
73681;BME280;61979;53.536;8.082;2022-08-19T05:18:31;101452.44;;;17.19;80.20
73681;BME280;61979;53.536;8.082;2022-08-19T05:19:50;101448.84;;;17.24;80.04
73681;BME280;61979;53.536;8.082;2022-08-19T05:21:14;101452.19;;;17.26;80.29
73681;BME280;61979;53.536;8.082;2022-08-19T05:22:37;101453.88;;;17.27;79.54
73681;BME280;61979;53.536;8.082;2022-08-19T05:23:38;101460.78;;;17.27;79.87
73681;BME280;61979;53.536;8.082;2022-08-19T05:24:39;101451.41;;;17.24;80.26
73681;BME280;61979;53.536;8.082;2022-08-19T05:25:39;101459.78;;;17.31;80.14